Time;durP1;ratioP1;P1;durP2;ratioP2;P2;SDS_P1;SDS_P2;PMS_P1;PMS_P2;Temp;Humidity;BMP_temperature;BMP_pressure;BME280_temperature;BME280_humidity;BME280_pressure;Samples;Min_cycle;Max_cycle;Signal;HPM_P1;HPM_P2
2022/02/17 00:00:49;;;;;;;1.30;1.10;;;12.40;98.00;;;;;;5047930;28;20488;-68
2022/02/17 00:03:16;;;;;;;1.20;1.00;;;12.40;98.00;;;;;;5041315;28;20499;-69
2022/02/17 00:05:43;;;;;;;1.20;1.00;;;12.40;98.00;;;;;;5042439;28;20490;-68
2022/02/17 00:08:10;;;;;;;1.20;1.00;;;12.40;98.00;;;;;;5041614;28;20484;-68
2022/02/17 00:10:37;;;;;;;1.20;1.00;;;12.50;98.00;;;;;;5037614;28;20553;-68
2022/02/17 00:13:06;;;;;;;1.20;1.00;;;12.50;98.00;;;;;;5041516;28;20492;-68
2022/02/17 00:15:34;;;;;;;1.20;1.00;;;12.60;98.00;;;;;;5050619;28;20546;-68
2022/02/17 00:18:10;;;;;;;1.20;1.00;;;12.50;98.00;;;;;;5037491;28;20551;-68
2022/02/17 00:20:37;;;;;;;1.20;1.00;;;12.50;98.00;;;;;;5047493;28;21077;-68
2022/02/17 00:23:04;;;;;;;1.20;1.00;;;12.50;98.00;;;;;;5043873;28;20509;-68
2022/02/17 00:25:31;;;;;;;1.20;1.00;;;12.60;98.00;;;;;;5043619;28;20494;-69
2022/02/17 00:27:58;;;;;;;1.20;1.00;;;12.60;98.00;;;;;;5042649;28;21006;-68
2022/02/17 00:30:30;;;;;;;1.20;1.00;;;12.60;98.00;;;;;;5044439;28;20484;-68
2022/02/17 00:32:57;;;;;;;1.20;1.00;;;12.80;98.00;;;;;;5022383;28;20984;-68
2022/02/17 00:35:24;;;;;;;1.20;1.00;;;12.80;98.00;;;;;;5039358;28;20549;-68
2022/02/17 00:37:53;;;;;;;1.30;1.10;;;12.80;98.00;;;;;;5042913;28;20551;-68
2022/02/17 00:40:20;;;;;;;1.20;1.00;;;12.90;98.00;;;;;;5039805;28;20791;-68
2022/02/17 00:42:47;;;;;;;1.20;1.00;;;13.00;98.00;;;;;;5039495;28;20496;-68
2022/02/17 00:45:17;;;;;;;1.20;1.00;;;13.00;98.00;;;;;;5042369;28;20964;-68
2022/02/17 00:47:45;;;;;;;1.20;1.00;;;13.10;98.00;;;;;;5042945;28;20460;-69
2022/02/17 00:50:12;;;;;;;1.20;1.10;;;13.20;98.00;;;;;;5049107;28;20901;-68
2022/02/17 00:52:39;;;;;;;1.20;1.00;;;13.30;98.00;;;;;;5042750;28;21005;-68
2022/02/17 00:55:07;;;;;;;1.20;1.00;;;13.30;98.00;;;;;;5041483;28;20887;-68
2022/02/17 00:57:34;;;;;;;1.20;1.00;;;13.40;98.00;;;;;;5042811;28;20462;-68
2022/02/17 01:00:01;;;;;;;1.20;1.00;;;13.40;98.00;;;;;;5036745;28;20489;-68
2022/02/17 01:02:28;;;;;;;1.20;1.00;;;13.40;98.00;;;;;;5042977;28;20520;-69
2022/02/17 01:04:57;;;;;;;1.20;1.00;;;13.50;98.00;;;;;;5042809;28;20496;-68
2022/02/17 01:07:24;;;;;;;1.20;1.00;;;13.50;98.00;;;;;;5042299;28;20485;-68
2022/02/17 01:09:51;;;;;;;1.20;1.00;;;13.50;98.00;;;;;;5044448;28;20446;-69
2022/02/17 01:12:18;;;;;;;1.20;1.00;;;13.50;98.00;;;;;;5038706;28;20860;-68
2022/02/17 01:14:45;;;;;;;1.20;1.00;;;13.50;98.00;;;;;;5039956;28;20492;-68
2022/02/17 01:17:13;;;;;;;1.20;0.97;;;13.50;98.00;;;;;;5046058;28;20902;-68
2022/02/17 01:19:39;;;;;;;1.20;1.10;;;13.50;98.00;;;;;;5046061;28;20492;-68
2022/02/17 01:22:08;;;;;;;1.20;1.00;;;13.50;98.00;;;;;;5049910;28;20533;-69
2022/02/17 01:24:35;;;;;;;1.20;1.00;;;13.40;98.00;;;;;;5043390;28;20998;-68
2022/02/17 01:27:02;;;;;;;1.20;1.00;;;13.30;98.00;;;;;;5045451;28;20496;-68
2022/02/17 01:29:29;;;;;;;1.20;1.00;;;13.30;98.00;;;;;;5043308;28;20457;-68
2022/02/17 01:31:56;;;;;;;1.20;1.00;;;13.20;98.00;;;;;;5046679;28;20514;-68
2022/02/17 01:34:23;;;;;;;1.20;1.00;;;13.20;98.00;;;;;;5046453;28;20462;-69
2022/02/17 01:36:50;;;;;;;1.20;1.00;;;13.20;98.00;;;;;;5051320;28;20455;-69
2022/02/17 01:39:19;;;;;;;1.20;0.93;;;13.20;98.00;;;;;;5038598;28;20522;-69
2022/02/17 01:41:46;;;;;;;1.20;1.00;;;13.20;98.00;;;;;;5041005;28;20589;-68
2022/02/17 01:44:13;;;;;;;1.20;1.00;;;13.20;98.00;;;;;;5046333;28;20966;-69
2022/02/17 01:46:42;;;;;;;1.20;1.00;;;13.20;98.00;;;;;;5045977;28;20885;-68
2022/02/17 01:49:11;;;;;;;1.20;1.00;;;13.20;98.00;;;;;;5046356;28;20535;-68
2022/02/17 01:51:39;;;;;;;1.20;1.00;;;13.20;98.00;;;;;;5047899;28;21048;-68
2022/02/17 01:54:08;;;;;;;1.20;1.00;;;13.20;98.00;;;;;;5044210;28;21018;-68
2022/02/17 01:56:38;;;;;;;1.20;1.00;;;13.20;98.00;;;;;;5039733;28;20465;-68
2022/02/17 01:59:07;;;;;;;1.20;1.00;;;13.20;98.00;;;;;;5044273;28;20545;-69
2022/02/17 02:01:35;;;;;;;1.20;1.00;;;13.20;98.00;;;;;;5045768;28;20532;-68
2022/02/17 02:04:02;;;;;;;1.20;0.90;;;13.20;98.00;;;;;;5049262;28;20496;-68
2022/02/17 02:06:29;;;;;;;1.20;1.00;;;13.30;98.00;;;;;;5042848;28;20467;-68
2022/02/17 02:08:58;;;;;;;1.20;1.00;;;13.20;98.00;;;;;;5038200;28;20497;-69
2022/02/17 02:11:26;;;;;;;1.20;0.90;;;13.20;98.00;;;;;;5042853;28;20535;-69
2022/02/17 02:13:54;;;;;;;1.20;0.90;;;13.20;98.00;;;;;;5045378;28;20523;-69
2022/02/17 02:16:21;;;;;;;1.20;1.00;;;13.20;98.00;;;;;;5042908;28;20504;-68
2022/02/17 02:18:48;;;;;;;1.30;1.10;;;13.10;98.00;;;;;;5044880;28;20485;-68
2022/02/17 02:21:20;;;;;;;1.20;1.00;;;13.10;98.00;;;;;;5049259;28;20525;-68
2022/02/17 02:23:51;;;;;;;1.20;1.00;;;13.10;98.00;;;;;;5041527;28;20459;-68
2022/02/17 02:26:18;;;;;;;1.20;1.00;;;13.00;98.00;;;;;;5044978;28;20529;-68
2022/02/17 02:28:45;;;;;;;1.20;1.00;;;13.00;98.00;;;;;;5045733;28;20544;-68
2022/02/17 02:31:12;;;;;;;1.20;1.10;;;13.00;98.00;;;;;;5043850;28;20480;-69
2022/02/17 02:33:41;;;;;;;1.20;1.00;;;13.00;98.00;;;;;;5045533;28;20460;-68
2022/02/17 02:36:08;;;;;;;1.20;1.00;;;13.00;98.00;;;;;;5045382;28;20548;-68
2022/02/17 02:38:37;;;;;;;1.20;1.00;;;12.90;98.00;;;;;;5045373;28;20490;-69
2022/02/17 02:41:04;;;;;;;1.20;1.00;;;12.90;98.00;;;;;;5040059;28;20545;-68
2022/02/17 02:43:31;;;;;;;1.20;1.00;;;12.90;98.00;;;;;;5045302;28;20496;-68
2022/02/17 02:45:58;;;;;;;1.20;1.00;;;12.90;98.00;;;;;;5044765;28;20536;-68
2022/02/17 02:48:25;;;;;;;1.20;0.97;;;12.90;98.00;;;;;;5046008;28;20500;-68
2022/02/17 02:50:52;;;;;;;1.43;1.27;;;12.90;98.00;;;;;;5045699;28;20454;-68
2022/02/17 02:53:19;;;;;;;1.20;1.00;;;12.80;98.00;;;;;;5045204;28;20536;-68
2022/02/17 02:55:49;;;;;;;1.20;1.00;;;12.80;98.00;;;;;;5045306;28;20521;-68
2022/02/17 02:58:18;;;;;;;1.20;1.00;;;12.80;98.00;;;;;;5046946;28;20489;-68
2022/02/17 03:00:47;;;;;;;1.20;1.00;;;12.80;98.00;;;;;;5048832;28;20465;-68
2022/02/17 03:03:15;;;;;;;1.20;1.00;;;12.80;98.00;;;;;;5042189;28;20530;-68
2022/02/17 03:05:45;;;;;;;1.20;1.00;;;12.80;98.00;;;;;;5039789;28;20506;-68
2022/02/17 03:08:12;;;;;;;1.20;0.90;;;12.80;98.00;;;;;;5041434;28;20494;-68
2022/02/17 03:10:39;;;;;;;1.20;1.00;;;12.70;98.00;;;;;;5043188;28;20966;-68
2022/02/17 03:13:07;;;;;;;1.20;1.00;;;12.70;98.00;;;;;;5044101;28;20511;-69
2022/02/17 03:15:35;;;;;;;1.20;1.00;;;12.70;98.00;;;;;;5047541;28;20874;-68
2022/02/17 03:18:02;;;;;;;1.20;1.00;;;12.70;98.00;;;;;;5042210;28;21004;-68
2022/02/17 03:20:29;;;;;;;1.20;1.00;;;12.70;98.00;;;;;;5044764;28;20466;-68
2022/02/17 03:22:57;;;;;;;1.20;1.00;;;12.70;98.00;;;;;;5038757;28;20513;-68
2022/02/17 03:25:24;;;;;;;1.20;0.90;;;12.80;98.00;;;;;;5046595;28;20570;-68
2022/02/17 03:27:50;;;;;;;1.20;1.00;;;12.70;98.00;;;;;;5044323;28;20490;-68
2022/02/17 03:30:19;;;;;;;1.20;1.00;;;12.70;98.00;;;;;;5041349;28;20508;-68
2022/02/17 03:32:47;;;;;;;1.20;0.90;;;12.70;98.00;;;;;;5040591;28;20508;-69
2022/02/17 03:35:18;;;;;;;1.20;1.00;;;12.70;98.00;;;;;;5041874;28;20449;-68
2022/02/17 03:37:46;;;;;;;1.20;0.90;;;12.60;98.00;;;;;;5042776;28;20470;-68
2022/02/17 03:40:13;;;;;;;1.20;0.90;;;12.60;98.00;;;;;;5041738;28;20484;-68
2022/02/17 03:42:43;;;;;;;1.20;1.00;;;12.60;98.00;;;;;;5040933;28;20545;-68
2022/02/17 03:45:11;;;;;;;1.40;1.10;;;12.60;98.00;;;;;;5044727;28;20887;-68
2022/02/17 03:47:39;;;;;;;1.20;1.00;;;12.60;98.00;;;;;;5039538;28;20501;-68
2022/02/17 03:50:08;;;;;;;1.20;0.90;;;12.60;98.00;;;;;;5044003;28;21133;-68
2022/02/17 03:52:37;;;;;;;1.20;1.00;;;12.70;98.00;;;;;;5042502;28;20480;-68
2022/02/17 03:55:04;;;;;;;1.20;1.00;;;12.60;98.00;;;;;;5042836;28;20524;-68
2022/02/17 03:57:32;;;;;;;1.20;1.00;;;12.60;98.00;;;;;;5046354;28;20925;-68
2022/02/17 03:59:59;;;;;;;1.20;1.00;;;12.70;98.00;;;;;;5041140;28;21170;-68
2022/02/17 04:02:26;;;;;;;1.20;0.90;;;12.60;98.00;;;;;;5043505;28;20569;-68
2022/02/17 04:04:54;;;;;;;1.20;1.00;;;12.70;98.00;;;;;;5043805;28;20457;-68
2022/02/17 04:07:23;;;;;;;1.20;1.00;;;12.70;98.00;;;;;;5036418;28;20456;-68
2022/02/17 04:09:50;;;;;;;1.20;1.00;;;12.70;98.00;;;;;;5046000;28;20466;-68
2022/02/17 04:12:18;;;;;;;1.20;1.10;;;12.70;98.00;;;;;;5043092;28;20553;-68
2022/02/17 04:14:45;;;;;;;1.20;1.03;;;12.70;98.00;;;;;;5043865;28;20501;-69
2022/02/17 04:17:12;;;;;;;1.20;1.00;;;12.70;98.00;;;;;;5042414;28;20996;-68
2022/02/17 04:19:39;;;;;;;1.20;1.00;;;12.70;98.00;;;;;;5043546;28;20539;-68
2022/02/17 04:22:08;;;;;;;1.20;1.00;;;12.70;98.00;;;;;;5039336;28;21051;-68
2022/02/17 04:24:35;;;;;;;1.20;0.97;;;12.60;98.00;;;;;;5044057;28;20456;-68
2022/02/17 04:27:03;;;;;;;1.20;1.00;;;12.70;98.00;;;;;;5044306;28;20456;-68
2022/02/17 04:29:30;;;;;;;1.20;1.00;;;12.70;98.00;;;;;;5040180;28;20504;-68
2022/02/17 04:31:57;;;;;;;1.20;1.00;;;12.60;98.00;;;;;;5042702;28;20454;-68
2022/02/17 04:34:24;;;;;;;1.20;1.00;;;12.60;98.00;;;;;;5040321;28;20553;-68
2022/02/17 04:36:53;;;;;;;1.20;1.00;;;12.60;98.00;;;;;;5043523;28;20456;-68
2022/02/17 04:39:22;;;;;;;1.20;1.00;;;12.60;98.00;;;;;;5046046;28;20846;-68
2022/02/17 04:44:33;;;;;;;1.20;1.00;;;12.60;98.00;;;;;;5039740;28;20484;-68
2022/02/17 04:47:00;;;;;;;1.20;1.00;;;12.60;98.00;;;;;;5040652;28;20492;-68
2022/02/17 04:49:27;;;;;;;1.20;1.00;;;12.60;98.00;;;;;;5043216;28;20565;-69
2022/02/17 04:51:54;;;;;;;1.20;1.00;;;12.60;98.00;;;;;;5045778;28;20506;-69
2022/02/17 04:54:25;;;;;;;1.20;1.00;;;12.50;98.00;;;;;;5042260;28;20468;-68
2022/02/17 04:56:51;;;;;;;1.20;1.00;;;12.50;98.00;;;;;;5044246;28;20503;-69
2022/02/17 04:59:18;;;;;;;1.20;0.90;;;12.50;98.00;;;;;;5041318;28;20496;-68
2022/02/17 05:01:45;;;;;;;1.20;1.00;;;12.40;98.00;;;;;;5042564;28;20558;-68
2022/02/17 05:04:14;;;;;;;1.20;0.97;;;12.50;98.00;;;;;;5039405;28;20500;-68
2022/02/17 05:06:41;;;;;;;1.20;1.00;;;12.50;98.00;;;;;;5042629;28;20845;-68
2022/02/17 05:09:09;;;;;;;1.20;0.90;;;12.50;98.00;;;;;;5047914;28;20490;-69
2022/02/17 05:11:38;;;;;;;1.20;1.00;;;12.50;98.00;;;;;;5045378;28;20543;-67
2022/02/17 05:14:05;;;;;;;1.20;0.90;;;12.60;98.00;;;;;;5041699;28;20877;-68
2022/02/17 05:16:32;;;;;;;1.20;0.90;;;12.50;98.00;;;;;;5042533;28;20489;-68
2022/02/17 05:18:59;;;;;;;1.20;1.00;;;12.50;98.00;;;;;;5034520;28;20463;-68
2022/02/17 05:21:26;;;;;;;1.20;1.00;;;12.50;98.00;;;;;;5042835;28;20946;-68
2022/02/17 05:23:55;;;;;;;1.20;1.00;;;12.50;98.00;;;;;;5042247;28;20528;-69
2022/02/17 05:26:22;;;;;;;1.20;1.00;;;12.50;98.00;;;;;;5039688;28;20453;-68
2022/02/17 05:28:50;;;;;;;1.20;1.00;;;12.50;98.00;;;;;;5039524;28;20492;-69
2022/02/17 05:31:18;;;;;;;1.20;1.00;;;12.50;98.00;;;;;;5039579;28;20489;-69
2022/02/17 05:33:45;;;;;;;1.20;1.00;;;12.50;98.00;;;;;;5046194;28;20549;-68
2022/02/17 05:36:15;;;;;;;1.20;0.90;;;12.50;98.00;;;;;;5041986;28;20543;-68
2022/02/17 05:38:42;;;;;;;1.20;1.00;;;12.50;98.00;;;;;;5042738;28;20512;-68
2022/02/17 05:41:11;;;;;;;1.20;1.00;;;12.50;98.00;;;;;;5040563;28;20531;-68
2022/02/17 05:43:38;;;;;;;1.20;0.93;;;12.60;98.00;;;;;;5039459;28;20523;-68
2022/02/17 05:46:06;;;;;;;1.20;1.00;;;12.60;98.00;;;;;;5038392;28;20495;-68
2022/02/17 05:48:35;;;;;;;1.20;1.00;;;12.70;98.00;;;;;;5042977;28;20901;-67
2022/02/17 05:51:02;;;;;;;1.20;1.00;;;12.80;98.00;;;;;;5046300;28;20492;-68
2022/02/17 05:53:41;;;;;;;1.20;1.00;;;12.90;98.00;;;;;;5033910;28;20530;-68
2022/02/17 05:56:09;;;;;;;1.20;1.00;;;12.90;98.00;;;;;;5043732;28;20483;-69
2022/02/17 05:58:36;;;;;;;1.20;0.90;;;12.90;98.00;;;;;;5045960;28;20455;-68
2022/02/17 06:01:03;;;;;;;1.20;1.00;;;12.80;98.00;;;;;;5046378;28;20500;-68
2022/02/17 06:03:32;;;;;;;1.20;1.00;;;12.70;98.00;;;;;;5049431;28;20559;-68
2022/02/17 06:05:59;;;;;;;1.20;0.90;;;12.60;98.00;;;;;;5042449;28;20946;-68
2022/02/17 06:08:26;;;;;;;1.67;1.10;;;12.50;98.00;;;;;;5045918;28;20494;-68
2022/02/17 06:10:53;;;;;;;1.20;1.00;;;12.30;98.00;;;;;;5040499;28;20497;-68
2022/02/17 06:13:21;;;;;;;1.20;1.10;;;12.20;98.00;;;;;;5038304;28;20487;-68
2022/02/17 06:15:48;;;;;;;1.20;0.90;;;12.10;98.00;;;;;;5047370;28;20446;-68
2022/02/17 06:18:15;;;;;;;1.20;0.90;;;12.00;98.00;;;;;;5045964;28;20511;-68
2022/02/17 06:20:43;;;;;;;1.20;1.00;;;12.00;98.00;;;;;;5046042;28;20511;-68
2022/02/17 06:23:10;;;;;;;1.20;1.00;;;11.90;98.00;;;;;;5037542;28;20528;-68
2022/02/17 06:25:37;;;;;;;1.20;0.93;;;11.90;98.00;;;;;;5045951;28;20980;-68
2022/02/17 06:28:04;;;;;;;1.30;1.10;;;11.90;98.00;;;;;;5041392;28;20493;-68
2022/02/17 06:30:31;;;;;;;1.20;1.00;;;11.90;98.00;;;;;;5046247;28;20456;-68
2022/02/17 06:32:58;;;;;;;1.20;1.00;;;11.90;98.00;;;;;;5049014;28;20464;-68
2022/02/17 06:35:33;;;;;;;1.20;0.97;;;11.80;98.00;;;;;;5041808;28;20578;-68
2022/02/17 06:38:02;;;;;;;1.20;1.00;;;11.80;98.00;;;;;;5050981;28;20486;-68
2022/02/17 06:40:30;;;;;;;1.20;0.93;;;11.80;98.00;;;;;;5045363;28;20575;-68
2022/02/17 06:43:02;;;;;;;1.20;0.93;;;11.80;98.00;;;;;;5044756;28;20562;-68
2022/02/17 06:45:29;;;;;;;1.20;1.00;;;11.90;98.00;;;;;;5051059;28;20466;-68
2022/02/17 06:47:56;;;;;;;1.20;1.00;;;11.90;98.00;;;;;;5044045;28;20457;-68
2022/02/17 06:50:23;;;;;;;1.20;1.00;;;11.90;98.00;;;;;;5045436;28;20454;-69
2022/02/17 06:52:50;;;;;;;1.40;1.10;;;12.00;98.00;;;;;;5044974;28;20493;-68
2022/02/17 06:55:18;;;;;;;1.20;1.00;;;12.00;98.00;;;;;;5041924;28;20505;-69
2022/02/17 06:57:45;;;;;;;1.20;1.00;;;12.10;98.00;;;;;;5045586;28;20503;-68
2022/02/17 07:00:13;;;;;;;1.20;1.00;;;12.10;98.00;;;;;;5044101;28;20457;-68
2022/02/17 07:02:40;;;;;;;1.20;1.00;;;12.20;98.00;;;;;;5046967;28;20893;-68
2022/02/17 07:05:08;;;;;;;1.20;0.97;;;12.20;98.00;;;;;;5042226;28;20494;-68
2022/02/17 07:07:35;;;;;;;1.20;1.00;;;12.20;98.00;;;;;;5040579;28;20464;-68
2022/02/17 07:10:03;;;;;;;1.20;1.00;;;12.20;98.00;;;;;;5040690;28;20470;-68
2022/02/17 07:12:32;;;;;;;1.20;1.00;;;12.20;98.00;;;;;;5045435;28;20460;-68
2022/02/17 07:15:02;;;;;;;1.20;1.00;;;12.10;98.00;;;;;;5041499;28;20460;-67
2022/02/17 07:17:29;;;;;;;1.20;1.10;;;12.20;98.00;;;;;;5044451;28;21088;-68
2022/02/17 07:19:56;;;;;;;1.20;1.10;;;12.10;98.00;;;;;;5044092;28;20934;-68
2022/02/17 07:22:23;;;;;;;1.20;1.00;;;12.10;98.00;;;;;;5041220;28;20534;-68
2022/02/17 07:24:50;;;;;;;1.93;1.50;;;12.10;98.00;;;;;;5043999;28;20488;-68
2022/02/17 07:27:17;;;;;;;1.20;1.00;;;12.10;98.00;;;;;;5041293;28;20495;-68
2022/02/17 07:29:47;;;;;;;1.30;1.10;;;12.10;98.00;;;;;;5044532;28;20495;-68
2022/02/17 07:32:15;;;;;;;1.20;1.00;;;12.10;98.00;;;;;;5042134;28;20515;-68
2022/02/17 07:34:42;;;;;;;1.20;1.00;;;12.10;98.00;;;;;;5039721;28;20487;-68
2022/02/17 07:37:10;;;;;;;1.20;1.00;;;12.10;98.00;;;;;;5044194;28;21214;-69
2022/02/17 07:39:37;;;;;;;1.30;1.10;;;12.10;98.00;;;;;;5043740;28;20459;-69
2022/02/17 07:42:06;;;;;;;1.20;1.00;;;12.10;98.00;;;;;;5042863;28;20465;-69
2022/02/17 07:44:34;;;;;;;1.30;1.10;;;12.10;98.00;;;;;;5038906;28;21022;-68
2022/02/17 07:47:03;;;;;;;1.23;1.07;;;12.10;98.00;;;;;;5041598;28;20465;-69
2022/02/17 07:49:30;;;;;;;1.20;1.00;;;12.10;98.00;;;;;;5044057;28;20545;-69
2022/02/17 07:51:57;;;;;;;1.20;1.00;;;12.10;98.00;;;;;;5039473;28;20941;-68
2022/02/17 07:54:25;;;;;;;1.20;1.00;;;12.10;98.00;;;;;;5042209;28;20482;-68
2022/02/17 07:56:52;;;;;;;1.20;1.00;;;12.00;98.00;;;;;;5047197;28;20464;-68
2022/02/17 07:59:18;;;;;;;1.20;1.00;;;12.10;98.00;;;;;;5040793;28;20971;-68
2022/02/17 08:01:46;;;;;;;1.20;1.10;;;12.10;98.00;;;;;;5041000;28;21015;-68
2022/02/17 08:04:18;;;;;;;1.77;1.00;;;12.10;98.00;;;;;;5035126;28;20524;-69
2022/02/17 08:06:51;;;;;;;1.20;1.10;;;12.00;98.00;;;;;;5036313;28;20470;-69
2022/02/17 08:09:19;;;;;;;1.20;0.97;;;12.00;98.00;;;;;;5039849;28;20458;-70
2022/02/17 08:11:46;;;;;;;1.20;1.00;;;12.10;98.00;;;;;;5034518;28;20781;-68
2022/02/17 08:14:13;;;;;;;1.20;1.00;;;12.10;98.00;;;;;;5038749;28;20542;-70
2022/02/17 08:16:40;;;;;;;1.23;1.03;;;12.10;98.00;;;;;;5039052;28;20542;-70
2022/02/17 08:19:07;;;;;;;1.20;1.00;;;12.10;98.00;;;;;;5033624;28;21192;-69
2022/02/17 08:21:35;;;;;;;1.20;1.00;;;12.20;98.00;;;;;;5045253;28;20974;-70
2022/02/17 08:24:03;;;;;;;1.20;1.00;;;12.20;98.00;;;;;;5029987;28;20519;-70
2022/02/17 08:26:30;;;;;;;1.20;1.10;;;12.30;98.00;;;;;;5030657;28;20478;-70
2022/02/17 08:28:58;;;;;;;1.20;1.00;;;12.40;98.00;;;;;;5030759;28;20518;-68
2022/02/17 08:31:25;;;;;;;1.20;0.90;;;12.40;98.00;;;;;;5041071;28;20543;-68
2022/02/17 08:33:52;;;;;;;1.20;0.90;;;12.50;98.00;;;;;;5031229;28;20558;-68
2022/02/17 08:36:19;;;;;;;2.40;1.30;;;12.50;98.00;;;;;;5040903;28;20491;-67
2022/02/17 08:38:48;;;;;;;1.20;0.90;;;12.60;98.00;;;;;;5040612;28;20487;-68
2022/02/17 08:41:15;;;;;;;1.20;1.00;;;12.60;98.00;;;;;;5035779;28;20503;-68
2022/02/17 08:43:42;;;;;;;1.20;1.00;;;12.60;98.00;;;;;;5032366;28;20518;-68
2022/02/17 08:46:09;;;;;;;1.20;1.03;;;12.60;98.00;;;;;;5037639;28;20531;-68
2022/02/17 08:48:36;;;;;;;1.20;1.00;;;12.60;98.00;;;;;;5033978;28;21008;-67
2022/02/17 08:51:03;;;;;;;1.20;1.00;;;12.60;98.00;;;;;;5034046;28;20557;-67
2022/02/17 08:53:30;;;;;;;1.20;1.00;;;12.60;98.00;;;;;;5037793;28;20558;-68
2022/02/17 08:55:59;;;;;;;1.30;1.10;;;12.60;98.00;;;;;;5029572;28;20491;-68
2022/02/17 08:58:26;;;;;;;1.20;0.90;;;12.60;98.00;;;;;;5033178;28;20487;-68
2022/02/17 09:00:55;;;;;;;2.40;1.20;;;12.60;98.00;;;;;;5031173;28;20512;-68
2022/02/17 09:03:22;;;;;;;1.20;1.00;;;12.50;98.00;;;;;;5038242;28;20959;-69
2022/02/17 09:05:49;;;;;;;1.30;1.00;;;12.40;98.00;;;;;;5031371;28;21190;-69
2022/02/17 09:08:18;;;;;;;1.20;1.00;;;12.40;98.00;;;;;;5035616;28;20876;-70
2022/02/17 09:10:50;;;;;;;1.20;1.10;;;12.30;98.00;;;;;;5034585;28;20477;-69
2022/02/17 09:13:19;;;;;;;1.20;1.07;;;12.20;98.00;;;;;;5041499;28;20461;-68
2022/02/17 09:15:46;;;;;;;1.20;1.00;;;12.20;98.00;;;;;;5032343;28;20509;-68
2022/02/17 09:18:14;;;;;;;2.23;1.20;;;12.20;98.00;;;;;;5041798;28;20560;-66
2022/02/17 09:20:41;;;;;;;1.20;1.00;;;12.40;98.00;;;;;;5036569;28;20459;-68
2022/02/17 09:23:09;;;;;;;1.20;1.00;;;12.30;98.00;;;;;;5035585;28;20851;-69
2022/02/17 09:25:37;;;;;;;1.20;1.00;;;12.20;98.00;;;;;;5029999;28;20539;-69
2022/02/17 09:28:04;;;;;;;1.30;1.10;;;12.20;98.00;;;;;;5030781;28;20663;-68
2022/02/17 09:30:32;;;;;;;1.20;1.00;;;12.10;98.00;;;;;;5038019;28;20546;-69
2022/02/17 09:32:59;;;;;;;1.20;0.90;;;12.10;98.00;;;;;;5038663;28;20461;-67
2022/02/17 09:35:27;;;;;;;1.20;1.00;;;12.00;98.00;;;;;;5044896;28;20458;-67
2022/02/17 09:37:54;;;;;;;1.20;1.00;;;12.00;98.00;;;;;;5040772;28;20541;-66
2022/02/17 09:40:25;;;;;;;1.20;0.97;;;12.00;98.00;;;;;;5036130;28;20545;-68
2022/02/17 09:42:52;;;;;;;3.10;1.17;;;12.10;98.00;;;;;;5042903;28;20457;-67
2022/02/17 09:45:20;;;;;;;1.20;1.00;;;12.10;98.00;;;;;;5034389;28;20575;-69
2022/02/17 09:47:48;;;;;;;1.30;1.10;;;12.10;98.00;;;;;;5036119;28;20456;-68
2022/02/17 09:50:16;;;;;;;3.33;1.40;;;12.10;98.00;;;;;;5030857;28;20510;-67
2022/02/17 09:52:45;;;;;;;1.30;1.20;;;12.10;98.00;;;;;;5041783;28;20468;-66
2022/02/17 09:55:16;;;;;;;1.20;1.00;;;12.20;98.00;;;;;;5045112;28;20494;-66
2022/02/17 09:57:44;;;;;;;1.20;1.00;;;12.20;98.00;;;;;;5035316;28;20508;-68
2022/02/17 10:00:13;;;;;;;1.40;1.10;;;12.20;98.00;;;;;;5045650;28;21337;-68
2022/02/17 10:02:41;;;;;;;1.23;1.03;;;12.00;98.00;;;;;;5033037;28;20532;-67
2022/02/17 10:05:11;;;;;;;1.20;1.00;;;11.90;98.00;;;;;;5042328;28;20522;-68
2022/02/17 10:07:39;;;;;;;1.20;1.10;;;11.90;98.00;;;;;;5033616;28;20794;-67
2022/02/17 10:10:09;;;;;;;2.80;1.57;;;11.80;98.00;;;;;;5047510;28;20465;-67
2022/02/17 10:12:54;;;;;;;1.20;1.00;;;11.70;98.00;;;;;;5036236;28;20955;-67
2022/02/17 10:15:29;;;;;;;1.20;1.00;;;11.60;98.00;;;;;;5045659;28;20465;-67
2022/02/17 10:18:04;;;;;;;1.20;1.00;;;11.50;98.00;;;;;;5041936;28;20469;-68
2022/02/17 10:20:55;;;;;;;1.20;1.00;;;11.50;98.00;;;;;;5034356;28;21233;-68
2022/02/17 10:23:23;;;;;;;2.27;1.47;;;11.70;98.00;;;;;;5036006;28;20461;-68
2022/02/17 10:26:15;;;;;;;1.30;1.20;;;11.70;98.00;;;;;;5045933;28;20575;-68
2022/02/17 10:28:44;;;;;;;1.20;1.00;;;11.70;98.00;;;;;;5032728;28;20565;-68
2022/02/17 10:31:23;;;;;;;1.20;1.10;;;11.70;98.00;;;;;;5039254;28;20464;-68
2022/02/17 10:33:52;;;;;;;1.20;1.00;;;11.70;98.00;;;;;;5036749;28;20955;-66
2022/02/17 10:36:34;;;;;;;1.20;0.93;;;11.70;98.00;;;;;;5034270;28;20477;-67
2022/02/17 10:39:10;;;;;;;1.20;1.00;;;11.60;98.00;;;;;;5036515;28;20473;-69
2022/02/17 10:41:48;;;;;;;1.20;0.90;;;11.40;98.00;;;;;;5041012;28;20534;-68
2022/02/17 10:44:15;;;;;;;1.40;1.10;;;10.90;98.00;;;;;;5041541;28;20505;-68
2022/02/17 10:46:42;;;;;;;1.20;1.00;;;10.60;98.00;;;;;;5043826;28;20452;-68
2022/02/17 10:49:13;;;;;;;1.20;1.00;;;10.60;98.00;;;;;;5040847;28;20458;-68
2022/02/17 10:51:42;;;;;;;1.20;1.00;;;10.70;98.00;;;;;;5042523;28;20501;-68
2022/02/17 10:54:10;;;;;;;1.20;1.00;;;10.80;98.00;;;;;;5037629;28;20547;-68
2022/02/17 10:56:40;;;;;;;1.30;1.20;;;10.90;98.00;;;;;;5039700;28;20550;-68
2022/02/17 11:00:01;;;;;;;1.20;1.00;;;11.00;98.00;;;;;;5038099;28;20492;-68
2022/02/17 11:01:58;;;;;;;1.20;1.00;;;11.20;98.00;;;;;;5042795;28;20451;-68
2022/02/17 11:04:26;;;;;;;1.50;1.27;;;11.50;98.00;;;;;;5040871;28;20577;-68
2022/02/17 11:06:54;;;;;;;1.20;1.00;;;11.80;98.00;;;;;;5037105;28;20491;-68
2022/02/17 11:09:22;;;;;;;1.53;1.37;;;12.30;98.00;;;;;;5037231;28;21158;-68
2022/02/17 11:11:52;;;;;;;1.70;1.20;;;12.60;98.00;;;;;;5038059;28;20541;-69
2022/02/17 11:14:38;;;;;;;1.20;1.00;;;12.60;98.00;;;;;;5036254;28;20549;-69
2022/02/17 11:17:06;;;;;;;1.20;1.00;;;12.50;98.00;;;;;;5034705;28;20461;-69
2022/02/17 11:19:34;;;;;;;1.47;1.23;;;12.40;98.00;;;;;;5034847;28;20459;-69
2022/02/17 11:22:02;;;;;;;1.20;1.10;;;12.60;98.00;;;;;;5047098;28;20963;-68
2022/02/17 11:24:29;;;;;;;2.40;1.10;;;12.90;98.00;;;;;;5031969;28;20584;-68
2022/02/17 11:27:03;;;;;;;1.20;1.00;;;12.90;98.00;;;;;;5033980;28;20462;-69
2022/02/17 11:29:32;;;;;;;1.20;1.00;;;12.80;98.00;;;;;;5030889;28;21186;-68
2022/02/17 11:32:02;;;;;;;1.60;1.27;;;12.60;98.00;;;;;;5047293;28;20453;-68
2022/02/17 11:34:36;;;;;;;1.20;1.10;;;12.80;97.10;;;;;;5040906;28;20455;-70
2022/02/17 11:37:37;;;;;;;1.20;1.10;;;12.80;95.50;;;;;;5036073;28;20451;-68
2022/02/17 11:40:08;;;;;;;1.20;1.00;;;12.70;96.20;;;;;;5037996;28;20494;-68
2022/02/17 11:42:37;;;;;;;2.70;1.27;;;12.60;95.80;;;;;;5029917;28;20451;-68
2022/02/17 11:45:11;;;;;;;1.20;1.10;;;12.90;93.50;;;;;;5037898;28;20551;-68
2022/02/17 11:48:01;;;;;;;1.20;1.10;;;13.40;92.80;;;;;;5045521;28;20481;-68
2022/02/17 11:50:36;;;;;;;3.63;1.37;;;13.30;92.00;;;;;;5023249;28;20949;-69
2022/02/17 11:53:26;;;;;;;1.20;1.00;;;13.30;93.30;;;;;;5046802;28;20973;-68
2022/02/17 11:56:11;;;;;;;1.50;1.10;;;13.10;90.60;;;;;;5031673;28;20502;-68
2022/02/17 11:58:45;;;;;;;1.20;1.10;;;13.10;90.20;;;;;;5026929;28;20534;-69
2022/02/17 12:01:38;;;;;;;1.20;1.00;;;13.40;89.40;;;;;;5031308;28;20460;-68
2022/02/17 12:04:06;;;;;;;1.20;1.00;;;13.80;88.50;;;;;;5043350;28;20490;-69
2022/02/17 12:06:38;;;;;;;1.20;1.00;;;13.60;88.40;;;;;;5035388;28;20495;-68
2022/02/17 12:09:06;;;;;;;1.20;1.00;;;13.60;87.20;;;;;;5036443;28;20510;-68
2022/02/17 12:11:41;;;;;;;2.90;1.20;;;13.80;87.10;;;;;;5030502;28;20463;-68
2022/02/17 12:14:09;;;;;;;1.20;1.00;;;13.30;87.00;;;;;;5040906;28;20485;-71
2022/02/17 12:16:38;;;;;;;1.30;1.10;;;12.90;87.70;;;;;;5045271;28;20507;-69
2022/02/17 12:19:09;;;;;;;1.20;1.00;;;12.80;88.30;;;;;;5033174;28;20509;-69
2022/02/17 12:21:38;;;;;;;1.53;1.10;;;12.70;87.00;;;;;;5041886;28;20490;-68
2022/02/17 12:24:06;;;;;;;1.20;1.00;;;12.70;87.70;;;;;;5043279;28;20473;-69
2022/02/17 12:26:42;;;;;;;1.20;1.10;;;12.70;88.10;;;;;;5030466;28;20498;-69
2022/02/17 12:29:29;;;;;;;1.20;1.10;;;12.90;87.90;;;;;;5038383;28;20620;-69
2022/02/17 12:32:04;;;;;;;1.77;1.67;;;13.00;88.40;;;;;;5042160;28;20539;-69
2022/02/17 12:34:34;;;;;;;1.20;1.00;;;13.40;88.30;;;;;;5032146;28;20881;-69
2022/02/17 12:37:02;;;;;;;1.20;1.00;;;13.90;87.60;;;;;;5034689;28;21078;-69
2022/02/17 12:39:31;;;;;;;1.20;1.00;;;14.20;86.90;;;;;;5039021;28;20505;-69
2022/02/17 12:42:07;;;;;;;1.50;1.50;;;14.40;85.60;;;;;;5038921;28;20455;-68
2022/02/17 12:44:37;;;;;;;1.60;1.60;;;13.90;86.80;;;;;;5038377;28;20475;-69
2022/02/17 12:47:05;;;;;;;1.50;1.30;;;14.00;87.70;;;;;;5039054;28;20813;-68
2022/02/17 12:49:34;;;;;;;2.30;1.60;;;14.30;87.50;;;;;;5028736;28;20471;-68
2022/02/17 12:52:11;;;;;;;1.20;0.90;;;14.50;86.10;;;;;;5038762;28;20494;-69
2022/02/17 12:54:40;;;;;;;6.77;1.30;;;14.70;85.30;;;;;;5028534;28;20473;-69
2022/02/17 12:57:11;;;;;;;3.83;1.30;;;14.90;85.40;;;;;;5039550;28;20475;-69
2022/02/17 12:59:39;;;;;;;2.23;1.70;;;14.60;85.40;;;;;;5039833;28;20858;-69